Time;durP1;ratioP1;P1;durP2;ratioP2;P2;SDS_P1;SDS_P2;PMS_P1;PMS_P2;Temp;Humidity;BMP_temperature;BMP_pressure;BME280_temperature;BME280_humidity;BME280_pressure;Samples;Min_cycle;Max_cycle;Signal;HPM_P1;HPM_P2
2023/03/13 00:01:23;;;;;;;;;;;;;;;1.79;100.00;100120.25;5090682;28;886;-57
2023/03/13 00:03:50;;;;;;;;;;;;;;;1.93;100.00;100119.94;5091109;28;859;-57
2023/03/13 00:06:16;;;;;;;;;;;;;;;2.04;100.00;100125.75;5091083;28;796;-57
2023/03/13 00:08:43;;;;;;;;;;;;;;;2.10;100.00;100129.06;5091207;28;1944;-57
2023/03/13 00:11:11;;;;;;;;;;;;;;;2.10;100.00;100129.06;5030913;28;1716934;-57
2023/03/13 00:13:38;;;;;;;;;;;;;;;2.06;100.00;100128.16;5091649;28;819;-57
2023/03/13 00:16:05;;;;;;;;;;;;;;;2.05;100.00;100130.09;5092607;28;808;-57
2023/03/13 00:18:32;;;;;;;;;;;;;;;2.01;100.00;100123.72;5095823;28;819;-57
2023/03/13 00:21:03;;;;;;;;;;;;;;;1.99;100.00;100123.25;5095811;28;866;-57
2023/03/13 00:23:30;;;;;;;;;;;;;;;1.99;100.00;100124.03;5095484;28;891;-57
2023/03/13 00:25:56;;;;;;;;;;;;;;;2.19;100.00;100116.13;5095450;28;811;-57
2023/03/13 00:28:23;;;;;;;;;;;;;;;2.35;100.00;100110.84;5095252;28;1981;-57
2023/03/13 00:30:50;;;;;;;;;;;;;;;2.41;100.00;100117.63;5077202;28;881;-57
2023/03/13 00:33:16;;;;;;;;;;;;;;;2.39;100.00;100117.16;5095317;28;828;-57
2023/03/13 00:35:42;;;;;;;;;;;;;;;2.34;100.00;100120.13;5095404;28;840;-57
2023/03/13 00:38:09;;;;;;;;;;;;;;;2.34;100.00;100120.13;5095276;28;843;-57
2023/03/13 00:40:37;;;;;;;;;;;;;;;2.36;100.00;100124.09;5095409;28;835;-57
2023/03/13 00:43:03;;;;;;;;;;;;;;;2.33;100.00;100132.19;5095124;28;895;-57
2023/03/13 00:45:30;;;;;;;;;;;;;;;2.25;100.00;100122.97;5076922;28;1239;-57
2023/03/13 00:47:56;;;;;;;;;;;;;;;2.15;100.00;100124.19;5095172;28;1890;-57
2023/03/13 00:50:23;;;;;;;;;;;;;;;2.04;100.00;100131.22;5095186;28;836;-57
2023/03/13 00:52:49;;;;;;;;;;;;;;;1.97;100.00;100131.75;5095753;28;785;-57
2023/03/13 00:55:15;;;;;;;;;;;;;;;1.90;100.00;100134.25;5095126;28;874;-57
2023/03/13 00:57:42;;;;;;;;;;;;;;;1.93;100.00;100128.09;5095075;28;816;-57
2023/03/13 01:00:08;;;;;;;;;;;;;;;2.04;100.00;100132.00;5094751;28;911;-57
2023/03/13 01:02:39;;;;;;;;;;;;;;;2.15;100.00;100137.03;5094720;28;862;-57
2023/03/13 01:05:07;;;;;;;;;;;;;;;2.20;100.00;100134.09;5094801;28;879;-57
2023/03/13 01:07:33;;;;;;;;;;;;;;;2.16;100.00;100131.25;5094756;28;827;-57
2023/03/13 01:10:00;;;;;;;;;;;;;;;2.07;100.00;100133.28;5094531;28;1885;-57
2023/03/13 01:12:26;;;;;;;;;;;;;;;2.10;100.00;100132.59;5094888;28;870;-57
2023/03/13 01:14:53;;;;;;;;;;;;;;;2.03;100.00;100137.81;5094791;28;827;-57
2023/03/13 01:17:20;;;;;;;;;;;;;;;1.94;100.00;100135.16;5094657;28;819;-57
2023/03/13 01:19:46;;;;;;;;;;;;;;;1.93;100.00;100133.56;5076517;28;879;-57
2023/03/13 01:22:13;;;;;;;;;;;;;;;1.91;100.00;100135.81;5076230;28;2457;-57
2023/03/13 01:24:39;;;;;;;;;;;;;;;1.95;100.00;100133.22;5094835;28;859;-57
2023/03/13 01:27:06;;;;;;;;;;;;;;;1.95;100.00;100139.47;5093801;28;882;-57
2023/03/13 01:29:32;;;;;;;;;;;;;;;1.95;100.00;100135.97;5094117;28;1969;-57
2023/03/13 01:31:59;;;;;;;;;;;;;;;1.95;100.00;100131.31;5094134;28;886;-57
2023/03/13 01:34:26;;;;;;;;;;;;;;;1.97;100.00;100136.41;5094214;28;843;-57
2023/03/13 01:36:53;;;;;;;;;;;;;;;1.97;100.00;100133.69;5094079;28;836;-57
2023/03/13 01:39:19;;;;;;;;;;;;;;;1.94;100.00;100129.72;5094073;28;808;-57
2023/03/13 01:41:45;;;;;;;;;;;;;;;1.88;100.00;100133.78;5093988;28;844;-57
2023/03/13 01:44:19;;;;;;;;;;;;;;;1.87;100.00;100134.13;5093935;28;859;-57
2023/03/13 01:46:46;;;;;;;;;;;;;;;1.89;100.00;100134.56;5093969;28;855;-57
2023/03/13 01:49:16;;;;;;;;;;;;;;;1.84;100.00;100147.28;5075645;28;1909;-57
2023/03/13 01:51:48;;;;;;;;;;;;;;;1.86;100.00;100146.13;5093842;28;819;-57
2023/03/13 01:54:17;;;;;;;;;;;;;;;1.86;100.00;100152.41;5093784;28;878;-57
2023/03/13 01:57:02;;;;;;;;;;;;;;;1.88;100.00;100154.78;5093878;28;847;-57
2023/03/13 01:59:40;;;;;;;;;;;;;;;1.95;100.00;100158.56;5093622;28;826;-57
2023/03/13 02:02:07;;;;;;;;;;;;;;;1.99;100.00;100164.94;5093905;28;772;-57
2023/03/13 02:04:38;;;;;;;;;;;;;;;2.07;100.00;100173.34;5093566;28;840;-57
2023/03/13 02:07:09;;;;;;;;;;;;;;;2.06;100.00;100175.28;5093476;28;867;-57
2023/03/13 02:09:38;;;;;;;;;;;;;;;2.07;100.00;100176.91;5093332;28;1939;-57
2023/03/13 02:12:09;;;;;;;;;;;;;;;2.09;100.00;100185.53;5093308;28;883;-57
2023/03/13 02:14:37;;;;;;;;;;;;;;;2.13;100.00;100182.94;5093343;28;890;-57
2023/03/13 02:17:05;;;;;;;;;;;;;;;2.14;100.00;100190.00;5093293;28;875;-57
2023/03/13 02:19:52;;;;;;;;;;;;;;;2.16;100.00;100191.25;5075091;28;1263;-57
2023/03/13 02:22:21;;;;;;;;;;;;;;;2.11;100.00;100188.72;5092969;28;1147;-57
2023/03/13 02:24:56;;;;;;;;;;;;;;;2.03;100.00;100187.69;5093101;28;839;-57
2023/03/13 02:27:23;;;;;;;;;;;;;;;1.96;100.00;100197.53;5093127;28;895;-57
2023/03/13 02:29:50;;;;;;;;;;;;;;;2.01;100.00;100197.34;5092903;28;1926;-57
2023/03/13 02:32:17;;;;;;;;;;;;;;;2.01;100.00;100200.06;5093311;28;835;-57
2023/03/13 02:34:46;;;;;;;;;;;;;;;2.06;100.00;100201.78;5093217;28;975;-57
2023/03/13 02:37:13;;;;;;;;;;;;;;;2.09;100.00;100212.00;5092848;28;903;-57
2023/03/13 02:39:44;;;;;;;;;;;;;;;2.09;100.00;100215.53;5092068;28;918;-57
2023/03/13 02:42:13;;;;;;;;;;;;;;;2.08;100.00;100221.31;5092827;28;823;-57
2023/03/13 02:44:40;;;;;;;;;;;;;;;2.06;100.00;100229.84;5092714;28;864;-57
2023/03/13 02:47:08;;;;;;;;;;;;;;;2.01;100.00;100221.88;5092723;28;819;-57
2023/03/13 02:49:35;;;;;;;;;;;;;;;1.99;100.00;100230.38;5092607;28;1943;-57
2023/03/13 02:52:16;;;;;;;;;;;;;;;1.89;100.00;100241.69;5092511;28;820;-57
2023/03/13 02:54:44;;;;;;;;;;;;;;;1.78;100.00;100235.84;5092594;28;855;-57
2023/03/13 02:57:11;;;;;;;;;;;;;;;1.71;100.00;100251.09;5092591;28;902;-57
2023/03/13 02:59:37;;;;;;;;;;;;;;;1.65;100.00;100255.19;5092473;28;815;-58
2023/03/13 03:02:04;;;;;;;;;;;;;;;1.60;100.00;100262.41;5092799;28;824;-57
2023/03/13 03:04:30;;;;;;;;;;;;;;;1.47;100.00;100265.38;5092407;28;871;-57
2023/03/13 03:06:57;;;;;;;;;;;;;;;1.17;100.00;100259.94;5092330;28;819;-57
2023/03/13 03:09:24;;;;;;;;;;;;;;;0.88;100.00;100269.66;5092159;28;1948;-57
2023/03/13 03:11:50;;;;;;;;;;;;;;;0.66;100.00;100261.72;5092461;28;816;-57
2023/03/13 03:14:17;;;;;;;;;;;;;;;0.41;100.00;100264.19;5092258;28;839;-57
2023/03/13 03:16:43;;;;;;;;;;;;;;;0.11;100.00;100274.94;5073995;28;876;-57
2023/03/13 03:19:10;;;;;;;;;;;;;;;0.01;100.00;100277.19;5092215;28;894;-57
2023/03/13 03:21:36;;;;;;;;;;;;;;;-0.07;100.00;100279.56;5092004;28;823;-57
2023/03/13 03:24:03;;;;;;;;;;;;;;;-0.16;100.00;100280.69;5092185;28;846;-57
2023/03/13 03:26:30;;;;;;;;;;;;;;;-0.14;100.00;100279.25;5092250;28;883;-57
2023/03/13 03:28:56;;;;;;;;;;;;;;;-0.02;100.00;100289.50;5073993;28;1922;-56
2023/03/13 03:31:23;;;;;;;;;;;;;;;-0.16;100.00;100286.91;5092162;28;855;-57
2023/03/13 03:33:50;;;;;;;;;;;;;;;-0.31;100.00;100281.94;5092214;28;882;-56
2023/03/13 03:36:19;;;;;;;;;;;;;;;-0.53;100.00;100282.88;5092168;28;839;-56
2023/03/13 03:38:45;;;;;;;;;;;;;;;-0.66;100.00;100282.69;5091825;28;844;-57
2023/03/13 03:41:15;;;;;;;;;;;;;;;-0.59;100.00;100289.56;5073818;28;1187;-57
2023/03/13 03:43:42;;;;;;;;;;;;;;;-0.69;100.00;100288.72;5091698;28;860;-57
2023/03/13 03:46:08;;;;;;;;;;;;;;;-0.77;100.00;100291.41;5091711;28;812;-57
2023/03/13 03:48:35;;;;;;;;;;;;;;;-0.84;100.00;100297.28;5091588;28;1894;-57
2023/03/13 03:51:02;;;;;;;;;;;;;;;-0.83;100.00;100296.19;5091498;28;886;-57
2023/03/13 03:53:29;;;;;;;;;;;;;;;-0.86;100.00;100294.09;5091907;28;824;-57
2023/03/13 03:55:56;;;;;;;;;;;;;;;-0.96;100.00;100294.38;5091668;28;831;-57
2023/03/13 03:58:22;;;;;;;;;;;;;;;-1.13;100.00;100301.34;5091566;28;815;-57
2023/03/13 04:00:49;;;;;;;;;;;;;;;-1.19;100.00;100305.28;5073364;28;1246;-56
2023/03/13 04:03:16;;;;;;;;;;;;;;;-1.15;100.00;100305.44;5091797;28;895;-57
2023/03/13 04:05:43;;;;;;;;;;;;;;;-1.10;100.00;100299.91;5091491;28;840;-56
2023/03/13 04:08:09;;;;;;;;;;;;;;;-1.09;100.00;100298.78;5091686;28;1965;-57
2023/03/13 04:10:36;;;;;;;;;;;;;;;-1.14;100.00;100304.34;5091402;28;1244;-57
2023/03/13 04:13:03;;;;;;;;;;;;;;;-1.04;100.00;100312.22;5091598;28;827;-56
2023/03/13 04:15:30;;;;;;;;;;;;;;;-0.86;100.00;100308.47;5091831;28;819;-57
2023/03/13 04:17:56;;;;;;;;;;;;;;;-0.91;100.00;100311.31;5091613;28;923;-57
2023/03/13 04:20:22;;;;;;;;;;;;;;;-0.96;100.00;100314.19;5091571;28;824;-57
2023/03/13 04:22:49;;;;;;;;;;;;;;;-0.86;100.00;100315.81;5091790;28;852;-57
2023/03/13 04:25:16;;;;;;;;;;;;;;;-0.82;100.00;100316.78;5091406;28;1255;-57
2023/03/13 04:27:43;;;;;;;;;;;;;;;-0.78;100.00;100325.13;5073342;28;1215;-57
2023/03/13 04:30:09;;;;;;;;;;;;;;;-0.70;100.00;100322.44;5091231;28;1909;-56
2023/03/13 04:32:36;;;;;;;;;;;;;;;-0.82;100.00;100331.16;5091255;28;886;-57
2023/03/13 04:35:03;;;;;;;;;;;;;;;-0.68;100.00;100320.19;5091210;28;831;-57
2023/03/13 04:37:30;;;;;;;;;;;;;;;-0.05;100.00;100328.97;5091227;28;820;-56
2023/03/13 04:39:56;;;;;;;;;;;;;;;0.45;100.00;100332.31;5091267;28;914;-57
2023/03/13 04:42:22;;;;;;;;;;;;;;;0.75;100.00;100338.72;5091159;28;886;-57
2023/03/13 04:44:49;;;;;;;;;;;;;;;0.94;100.00;100338.31;5091120;28;890;-57
2023/03/13 04:47:16;;;;;;;;;;;;;;;1.00;100.00;100346.00;5091079;28;847;-57
2023/03/13 04:49:42;;;;;;;;;;;;;;;1.04;100.00;100342.63;5090946;28;1889;-57
2023/03/13 04:52:09;;;;;;;;;;;;;;;1.13;100.00;100348.84;5091128;28;1096;-57
2023/03/13 04:54:36;;;;;;;;;;;;;;;1.04;100.00;100348.06;5091094;28;914;-57
2023/03/13 04:57:03;;;;;;;;;;;;;;;0.75;100.00;100352.31;5090986;28;835;-57
2023/03/13 04:59:30;;;;;;;;;;;;;;;0.64;100.00;100353.75;5091085;28;808;-57
2023/03/13 05:01:56;;;;;;;;;;;;;;;0.46;100.00;100351.06;5073263;28;886;-57
2023/03/13 05:04:23;;;;;;;;;;;;;;;0.37;100.00;100352.97;5094805;28;890;-57
2023/03/13 05:06:49;;;;;;;;;;;;;;;0.50;100.00;100356.66;5094563;28;843;-57
2023/03/13 05:09:16;;;;;;;;;;;;;;;0.81;100.00;100359.97;5094299;28;1886;-57
2023/03/13 05:11:41;;;;;;;;;;;;;;;1.29;100.00;100354.56;5094855;28;875;-57
2023/03/13 05:14:10;;;;;;;;;;;;;;;1.90;100.00;100362.41;5094477;28;847;-57
2023/03/13 05:16:37;;;;;;;;;;;;;;;2.43;100.00;100375.38;5094507;28;850;-57
2023/03/13 05:19:04;;;;;;;;;;;;;;;2.78;100.00;100368.81;5094315;28;820;-57
2023/03/13 05:21:30;;;;;;;;;;;;;;;3.01;100.00;100380.16;5094338;28;887;-57
2023/03/13 05:23:57;;;;;;;;;;;;;;;3.20;100.00;100383.16;5094374;28;879;-57
2023/03/13 05:26:23;;;;;;;;;;;;;;;3.53;100.00;100373.28;5094306;28;835;-57
2023/03/13 05:28:49;;;;;;;;;;;;;;;4.04;100.00;100377.25;5094154;28;1913;-57
2023/03/13 05:31:16;;;;;;;;;;;;;;;4.57;100.00;100384.66;5094197;28;882;-57
2023/03/13 05:33:42;;;;;;;;;;;;;;;5.10;100.00;100388.88;5094164;28;828;-57
2023/03/13 05:36:09;;;;;;;;;;;;;;;5.32;100.00;100395.69;5094037;28;816;-57
2023/03/13 05:38:36;;;;;;;;;;;;;;;5.50;100.00;100396.16;5094147;28;863;-57
2023/03/13 05:41:02;;;;;;;;;;;;;;;5.62;100.00;100399.97;5093965;28;820;-57
2023/03/13 05:43:28;;;;;;;;;;;;;;;5.56;100.00;100404.13;5093957;28;898;-57
2023/03/13 05:45:55;;;;;;;;;;;;;;;5.59;100.00;100404.22;5093963;28;906;-57
2023/03/13 05:48:22;;;;;;;;;;;;;;;5.90;100.00;100411.59;5093721;28;1894;-57
2023/03/13 05:50:48;;;;;;;;;;;;;;;5.96;100.00;100405.91;5093771;28;812;-57
2023/03/13 05:53:14;;;;;;;;;;;;;;;5.96;100.00;100408.63;5093830;28;804;-57
2023/03/13 05:55:41;;;;;;;;;;;;;;;6.27;100.00;100416.81;5093784;28;844;-57
2023/03/13 05:58:08;;;;;;;;;;;;;;;6.56;99.73;100395.44;5075477;28;1385;-57
2023/03/13 06:00:36;;;;;;;;;;;;;;;6.77;98.33;100399.78;5093672;28;812;-57
2023/03/13 06:03:02;;;;;;;;;;;;;;;7.25;94.04;100400.31;5075368;28;1183;-57
2023/03/13 06:05:29;;;;;;;;;;;;;;;7.45;90.75;100401.06;5093518;28;966;-57
2023/03/13 06:07:55;;;;;;;;;;;;;;;7.23;88.29;100410.88;5093475;28;1918;-57
2023/03/13 06:10:22;;;;;;;;;;;;;;;6.85;91.37;100409.75;5093154;28;1380;-57
2023/03/13 06:12:52;;;;;;;;;;;;;;;7.01;90.94;100417.94;5093481;28;839;-57
2023/03/13 06:15:19;;;;;;;;;;;;;;;6.88;91.17;100420.03;5092484;28;828;-57
2023/03/13 06:17:46;;;;;;;;;;;;;;;6.65;91.63;100418.00;5093629;28;875;-57
2023/03/13 06:20:13;;;;;;;;;;;;;;;6.64;93.29;100427.41;5093213;28;812;-57
2023/03/13 06:22:40;;;;;;;;;;;;;;;6.61;90.41;100430.84;5093286;28;812;-57
2023/03/13 06:25:07;;;;;;;;;;;;;;;6.70;89.78;100420.47;5093070;28;874;-57
2023/03/13 06:27:34;;;;;;;;;;;;;;;6.99;88.88;100420.25;5093369;28;894;-57
2023/03/13 06:30:00;;;;;;;;;;;;;;;7.29;86.13;100428.66;5093244;28;1906;-57
2023/03/13 06:32:31;;;;;;;;;;;;;;;7.29;85.72;100418.44;5093041;28;879;-57
2023/03/13 06:34:56;;;;;;;;;;;;;;;7.44;84.21;100416.75;5092958;28;863;-57
2023/03/13 06:37:24;;;;;;;;;;;;;;;7.53;83.28;100414.56;5092926;28;903;-57
2023/03/13 06:39:50;;;;;;;;;;;;;;;7.41;82.87;100423.00;5074752;28;1262;-57
2023/03/13 06:42:16;;;;;;;;;;;;;;;7.23;84.81;100408.91;5092871;28;819;-57
2023/03/13 06:44:43;;;;;;;;;;;;;;;7.54;82.34;100410.66;5092839;28;1040;-57
2023/03/13 06:47:10;;;;;;;;;;;;;;;7.65;83.11;100427.34;5092744;28;804;-57
2023/03/13 06:49:36;;;;;;;;;;;;;;;7.74;79.53;100414.09;5092649;28;1909;-57
2023/03/13 06:52:03;;;;;;;;;;;;;;;7.75;80.54;100428.69;5092649;28;812;-57
2023/03/13 06:54:30;;;;;;;;;;;;;;;7.78;77.32;100417.72;5092674;28;871;-58
2023/03/13 06:56:59;;;;;;;;;;;;;;;7.89;77.36;100417.88;5092793;28;823;-57
2023/03/13 06:59:31;;;;;;;;;;;;;;;8.25;75.53;100436.91;5092608;28;962;-57
2023/03/13 07:11:12;;;;;;;;;;;;;;;9.66;65.81;100440.97;5075286;28;1613;-56
2023/03/13 07:13:39;;;;;;;;;;;;;;;9.58;64.84;100431.03;5073976;28;1421;-57
2023/03/13 07:16:07;;;;;;;;;;;;;;;9.51;64.83;100445.56;5092492;28;892;-57
2023/03/13 07:18:35;;;;;;;;;;;;;;;9.73;64.93;100449.31;5092064;28;840;-57
2023/03/13 07:21:05;;;;;;;;;;;;;;;9.72;65.07;100455.22;5073918;28;1222;-57
2023/03/13 07:23:33;;;;;;;;;;;;;;;9.90;63.24;100447.06;5092128;28;848;-57
2023/03/13 07:26:04;;;;;;;;;;;;;;;10.21;60.14;100442.97;5091707;28;804;-57
2023/03/13 07:28:31;;;;;;;;;;;;;;;10.31;60.60;100447.81;5092025;28;1901;-57
2023/03/13 07:31:07;;;;;;;;;;;;;;;10.75;59.47;100449.66;5091937;28;832;-57
2023/03/13 07:33:34;;;;;;;;;;;;;;;10.87;56.40;100444.94;5092413;28;793;-57
2023/03/13 07:36:01;;;;;;;;;;;;;;;10.74;55.22;100450.03;5092212;28;811;-57
2023/03/13 07:38:28;;;;;;;;;;;;;;;11.16;55.76;100445.81;5092507;28;757;-57
2023/03/13 07:40:55;;;;;;;;;;;;;;;11.26;53.42;100442.31;5091776;28;879;-57
2023/03/13 07:43:26;;;;;;;;;;;;;;;11.55;53.28;100445.16;5092056;28;832;-57
2023/03/13 07:45:57;;;;;;;;;;;;;;;11.46;53.53;100434.44;5091744;28;957;-57
2023/03/13 07:48:27;;;;;;;;;;;;;;;11.27;52.10;100446.66;5091803;28;1881;-57
2023/03/13 07:50:53;;;;;;;;;;;;;;;11.17;54.22;100434.38;5091657;28;840;-57
2023/03/13 07:53:20;;;;;;;;;;;;;;;11.33;52.76;100436.00;5091614;28;828;-57
2023/03/13 07:55:54;;;;;;;;;;;;;;;11.44;50.78;100436.81;5091690;28;886;-57
2023/03/13 07:58:22;;;;;;;;;;;;;;;11.73;49.70;100437.63;5091486;28;836;-57
2023/03/13 08:00:49;;;;;;;;;;;;;;;12.11;48.31;100426.19;5091608;28;867;-57
2023/03/13 08:03:15;;;;;;;;;;;;;;;11.84;47.26;100432.91;5091510;28;813;-57
2023/03/13 08:05:42;;;;;;;;;;;;;;;11.30;49.02;100429.25;5091543;28;816;-57
2023/03/13 08:08:09;;;;;;;;;;;;;;;11.17;49.00;100439.91;5091446;28;1972;-57
2023/03/13 08:10:35;;;;;;;;;;;;;;;11.30;49.75;100425.72;5091467;28;828;-57
2023/03/13 08:13:02;;;;;;;;;;;;;;;12.00;48.15;100435.28;5091201;28;1414;-57
2023/03/13 08:15:28;;;;;;;;;;;;;;;12.82;40.96;100433.50;5091459;28;828;-57
2023/03/13 08:17:55;;;;;;;;;;;;;;;13.31;35.73;100428.94;5091295;28;816;-57
2023/03/13 08:20:22;;;;;;;;;;;;;;;13.60;36.58;100415.66;5091402;28;840;-57
2023/03/13 08:22:49;;;;;;;;;;;;;;;13.88;34.22;100414.63;5091254;28;926;-57
2023/03/13 08:25:16;;;;;;;;;;;;;;;13.76;34.36;100417.09;5091550;28;878;-57
2023/03/13 08:27:43;;;;;;;;;;;;;;;13.58;32.50;100404.16;5073199;28;1286;-56
2023/03/13 08:30:10;;;;;;;;;;;;;;;12.35;32.15;100433.66;5091304;28;1914;-57
2023/03/13 08:32:37;;;;;;;;;;;;;;;12.29;33.73;100429.72;5091273;28;867;-57
2023/03/13 08:35:04;;;;;;;;;;;;;;;12.28;33.32;100427.34;5091337;28;812;-57
2023/03/13 08:37:31;;;;;;;;;;;;;;;11.85;33.68;100440.00;5092609;28;879;-57
2023/03/13 08:40:10;;;;;;;;;;;;;;;11.80;34.21;100437.66;5095268;28;831;-57
2023/03/13 08:42:37;;;;;;;;;;;;;;;11.74;33.21;100424.59;5076877;28;1516;-57
2023/03/13 08:45:05;;;;;;;;;;;;;;;12.07;33.34;100415.09;5095362;28;843;-56
2023/03/13 08:47:32;;;;;;;;;;;;;;;12.16;34.33;100417.44;5095057;28;823;-57
2023/03/13 08:49:58;;;;;;;;;;;;;;;12.23;34.65;100421.00;5094948;28;1949;-57
2023/03/13 08:52:25;;;;;;;;;;;;;;;12.57;34.89;100415.00;5094963;28;847;-56
2023/03/13 08:54:51;;;;;;;;;;;;;;;12.70;34.75;100422.88;5094922;28;886;-57
2023/03/13 08:57:18;;;;;;;;;;;;;;;12.44;33.86;100425.72;5076793;28;1295;-56
2023/03/13 08:59:44;;;;;;;;;;;;;;;12.36;34.98;100420.59;5094804;28;875;-57
2023/03/13 09:02:11;;;;;;;;;;;;;;;12.53;34.48;100410.66;5094929;28;819;-56
2023/03/13 09:04:38;;;;;;;;;;;;;;;12.71;34.45;100407.81;5094778;28;976;-57
2023/03/13 09:07:04;;;;;;;;;;;;;;;12.52;32.01;100418.16;5094637;28;874;-56
2023/03/13 09:09:36;;;;;;;;;;;;;;;12.44;33.09;100422.16;5094912;28;1893;-57
2023/03/13 09:12:10;;;;;;;;;;;;;;;12.56;32.80;100413.41;5094256;28;1401;-57
2023/03/13 09:14:37;;;;;;;;;;;;;;;12.69;33.27;100404.63;5076837;28;824;-57
2023/03/13 09:17:04;;;;;;;;;;;;;;;12.53;33.63;100394.00;5094413;28;867;-56
2023/03/13 09:19:30;;;;;;;;;;;;;;;11.96;33.06;100406.00;5094523;28;836;-57
2023/03/13 09:21:56;;;;;;;;;;;;;;;11.77;33.52;100409.94;5094392;28;851;-56
2023/03/13 09:24:23;;;;;;;;;;;;;;;11.75;35.18;100412.31;5094392;28;816;-57
2023/03/13 09:26:49;;;;;;;;;;;;;;;12.12;34.78;100413.88;5094326;28;882;-56
2023/03/13 09:29:16;;;;;;;;;;;;;;;12.10;33.81;100411.53;5094241;28;1913;-57
2023/03/13 09:31:43;;;;;;;;;;;;;;;11.98;33.37;100409.16;5094241;28;824;-57
2023/03/13 09:34:08;;;;;;;;;;;;;;;11.98;33.91;100395.31;5094195;28;836;-57
2023/03/13 09:36:34;;;;;;;;;;;;;;;12.07;33.40;100395.69;5094120;28;804;-56
2023/03/13 10:10:16;;;;;;;;;;;;;;;12.50;28.46;100392.03;5320703;22;1678;-65
2023/03/13 10:12:48;;;;;;;;;;;;;;;12.59;27.84;100375.78;5113940;28;873;-67
2023/03/13 10:15:18;;;;;;;;;;;;;;;12.53;28.05;100364.31;5114118;28;843;-67
2023/03/13 10:17:46;;;;;;;;;;;;;;;12.59;27.92;100386.88;5112402;28;1466;-66
2023/03/13 10:20:24;;;;;;;;;;;;;;;12.46;26.42;100392.06;5113824;28;905;-67
2023/03/13 10:22:59;;;;;;;;;;;;;;;12.42;29.20;100380.97;5113788;28;826;-67
2023/03/13 10:25:28;;;;;;;;;;;;;;;12.66;26.93;100379.28;5113608;28;807;-66
2023/03/13 10:27:55;;;;;;;;;;;;;;;12.75;27.53;100380.84;5113624;28;822;-66
2023/03/13 10:30:27;;;;;;;;;;;;;;;12.87;26.33;100380.41;5113432;28;1976;-67
2023/03/13 10:32:57;;;;;;;;;;;;;;;12.91;27.37;100372.03;5113668;28;854;-67
2023/03/13 10:35:29;;;;;;;;;;;;;;;12.81;26.72;100377.25;5113776;28;885;-66
2023/03/13 10:38:04;;;;;;;;;;;;;;;12.80;26.90;100369.31;5113423;28;953;-66
2023/03/13 10:40:31;;;;;;;;;;;;;;;12.61;27.42;100378.91;5113294;27;968;-65
2023/03/13 10:43:04;;;;;;;;;;;;;;;12.76;27.28;100369.34;5113306;28;851;-65
2023/03/13 10:45:36;;;;;;;;;;;;;;;12.95;27.51;100370.03;5113268;28;843;-65
2023/03/13 10:48:11;;;;;;;;;;;;;;;12.84;25.32;100368.13;5111714;28;1886;-65
2023/03/13 10:50:41;;;;;;;;;;;;;;;12.58;26.07;100368.63;5113249;28;874;-65
2023/03/13 10:53:28;;;;;;;;;;;;;;;12.66;26.50;100359.09;5111801;28;1388;-65
2023/03/13 10:56:13;;;;;;;;;;;;;;;12.57;27.64;100350.44;5095098;28;1307;-64
2023/03/13 10:58:43;;;;;;;;;;;;;;;12.48;27.84;100338.97;5112984;28;987;-66
2023/03/13 11:01:10;;;;;;;;;;;;;;;12.52;29.36;100337.75;5112352;28;819;-65
2023/03/13 11:03:37;;;;;;;;;;;;;;;12.73;28.82;100341.63;5112876;28;902;-66
2023/03/13 11:06:03;;;;;;;;;;;;;;;12.99;30.18;100338.28;5112818;28;882;-65
2023/03/13 11:08:35;;;;;;;;;;;;;;;12.83;28.13;100330.47;5112811;28;1894;-65
2023/03/13 11:11:03;;;;;;;;;;;;;;;12.94;28.97;100311.00;5112576;28;1186;-64
2023/03/13 11:13:33;;;;;;;;;;;;;;;13.16;28.40;100314.41;5111682;28;1321;-64
2023/03/13 11:16:27;;;;;;;;;;;;;;;13.55;29.31;100293.09;5112910;27;893;-65
2023/03/13 11:19:07;;;;;;;;;;;;;;;13.37;29.57;100298.81;5109364;28;1023;-65
2023/03/13 11:21:42;;;;;;;;;;;;;;;13.48;29.54;100297.53;5112549;28;807;-66
2023/03/13 11:24:14;;;;;;;;;;;;;;;13.45;28.56;100303.88;5112556;28;819;-66
2023/03/13 11:26:59;;;;;;;;;;;;;;;13.60;27.63;100304.56;5112497;28;869;-65
2023/03/13 11:29:42;;;;;;;;;;;;;;;13.57;29.17;100304.56;5112387;28;1970;-67
2023/03/13 11:32:22;;;;;;;;;;;;;;;13.66;29.37;100300.13;5112453;28;814;-67
2023/03/13 11:34:52;;;;;;;;;;;;;;;13.79;29.46;100294.06;5112381;28;803;-67
2023/03/13 11:37:20;;;;;;;;;;;;;;;13.99;28.58;100297.81;5112219;28;818;-66
2023/03/13 11:40:04;;;;;;;;;;;;;;;13.84;27.06;100299.94;5112937;28;768;-66
2023/03/13 11:42:39;;;;;;;;;;;;;;;13.56;29.03;100287.13;5112137;28;1055;-67
2023/03/13 11:45:13;;;;;;;;;;;;;;;13.96;27.18;100281.97;5112254;28;838;-67
2023/03/13 11:47:43;;;;;;;;;;;;;;;13.78;27.14;100273.03;5112161;28;877;-68
2023/03/13 11:50:25;;;;;;;;;;;;;;;13.59;29.45;100272.44;5112042;28;1935;-68
2023/03/13 11:53:15;;;;;;;;;;;;;;;14.09;30.09;100276.66;5112070;28;819;-68
2023/03/13 11:56:00;;;;;;;;;;;;;;;14.43;30.51;100273.84;5112053;28;818;-67
2023/03/13 11:58:29;;;;;;;;;;;;;;;14.35;29.04;100263.25;5112048;28;849;-67
2023/03/13 12:01:15;;;;;;;;;;;;;;;14.24;28.70;100269.72;5112066;28;831;-68
2023/03/13 12:03:44;;;;;;;;;;;;;;;14.33;27.23;100269.22;5112211;28;901;-66
2023/03/13 12:06:25;;;;;;;;;;;;;;;14.38;27.31;100260.41;5111947;28;862;-68
2023/03/13 12:08:54;;;;;;;;;;;;;;;14.24;28.28;100257.81;5112123;28;1921;-67
2023/03/13 12:11:24;;;;;;;;;;;;;;;14.54;30.15;100261.81;5113269;28;838;-67
2023/03/13 12:14:03;;;;;;;;;;;;;;;14.46;29.94;100255.53;5116613;28;897;-67
2023/03/13 12:16:44;;;;;;;;;;;;;;;14.67;30.45;100246.13;5114774;28;1325;-67
2023/03/13 12:19:20;;;;;;;;;;;;;;;14.99;29.62;100244.88;5116127;28;831;-67
2023/03/13 12:21:52;;;;;;;;;;;;;;;14.73;30.34;100250.03;5116425;28;856;-67
2023/03/13 12:24:22;;;;;;;;;;;;;;;14.65;28.97;100242.97;5116023;28;791;-67
2023/03/13 12:26:53;;;;;;;;;;;;;;;14.86;28.06;100253.00;5116199;28;851;-68
2023/03/13 12:29:39;;;;;;;;;;;;;;;14.81;28.58;100237.59;5115841;28;1975;-68
2023/03/13 12:32:13;;;;;;;;;;;;;;;14.34;30.07;100243.00;5115901;28;863;-67
2023/03/13 12:34:47;;;;;;;;;;;;;;;14.51;29.78;100246.75;5114504;28;1206;-67
2023/03/13 12:37:20;;;;;;;;;;;;;;;14.94;29.98;100243.34;5115720;28;826;-68
2023/03/13 12:39:50;;;;;;;;;;;;;;;14.81;29.62;100234.03;5115867;28;870;-68
2023/03/13 12:42:28;;;;;;;;;;;;;;;14.27;29.00;100249.44;5115644;28;877;-68
2023/03/13 12:44:56;;;;;;;;;;;;;;;14.25;31.02;100242.69;5115740;28;838;-68
2023/03/13 12:47:52;;;;;;;;;;;;;;;14.70;29.81;100251.66;5115527;28;901;-68
2023/03/13 12:50:37;;;;;;;;;;;;;;;14.52;30.57;100247.53;5115529;28;1882;-68
2023/03/13 12:53:13;;;;;;;;;;;;;;;14.94;31.99;100242.56;5114048;28;1392;-67
2023/03/13 12:56:00;;;;;;;;;;;;;;;14.57;30.21;100252.63;5115379;28;964;-63
2023/03/13 12:58:26;;;;;;;;;;;;;;;14.29;30.48;100252.59;5114173;28;828;-66
2023/03/13 13:00:54;;;;;;;;;;;;;;;14.21;29.83;100248.31;5115227;28;831;-67
2023/03/13 13:03:25;;;;;;;;;;;;;;;14.16;31.43;100248.00;5115323;28;815;-66
2023/03/13 13:06:04;;;;;;;;;;;;;;;14.50;30.82;100248.72;5115065;28;830;-66
2023/03/13 13:08:35;;;;;;;;;;;;;;;14.57;30.98;100252.63;5115253;28;1893;-65
2023/03/13 13:11:20;;;;;;;;;;;;;;;14.94;30.44;100253.69;5114943;28;1163;-66
2023/03/13 13:13:47;;;;;;;;;;;;;;;15.22;30.63;100244.88;5114996;28;862;-66
2023/03/13 13:16:17;;;;;;;;;;;;;;;15.31;29.11;100238.75;5115059;28;820;-66
2023/03/13 13:18:44;;;;;;;;;;;;;;;15.35;30.54;100236.69;5114979;28;862;-66
2023/03/13 13:21:10;;;;;;;;;;;;;;;15.21;31.56;100226.59;5114867;28;910;-66
2023/03/13 13:23:45;;;;;;;;;;;;;;;15.16;32.35;100231.88;5114226;28;962;-65
2023/03/13 13:26:32;;;;;;;;;;;;;;;15.30;31.89;100234.41;5115549;28;934;-66
2023/03/13 13:29:00;;;;;;;;;;;;;;;15.08;33.05;100220.06;5113855;28;1918;-65
2023/03/13 13:31:44;;;;;;;;;;;;;;;14.67;33.14;100221.88;5115469;28;835;-66
2023/03/13 13:34:29;;;;;;;;;;;;;;;14.29;33.66;100237.88;5114629;28;871;-66
2023/03/13 13:36:57;;;;;;;;;;;;;;;14.52;33.30;100231.63;5114535;28;897;-66
2023/03/13 13:39:52;;;;;;;;;;;;;;;14.38;33.62;100227.06;5113180;28;1190;-66
2023/03/13 13:42:29;;;;;;;;;;;;;;;14.55;32.79;100225.25;5114759;28;846;-65
2023/03/13 13:44:57;;;;;;;;;;;;;;;14.73;33.92;100230.53;5114737;28;875;-65
2023/03/13 13:47:25;;;;;;;;;;;;;;;14.39;32.91;100239.75;5114427;27;843;-65